• Join FlightAware (Why Join?)
  • Login
  • US Flag 
04:38AM EDT


 

Airport Tracker/Info


-or-


 

Live Flight TrackerFlight Track Log ✈ N147SW ✈ 17-Apr-2014 ✈ KAUS - KEGE

Flight Track Log - Related Links

Times and Time Zones

All times are in EDT time to prevent confusion due to time zone crossing. See the N147SW flight status page for this flight to view local times or setup timezone preferences in your user account.

Time Position Orientation Groundspeed Altitude Reporting Facility
EDT Latitude Longitude Course Direction KTS MPH feet Rate Location/Type
05:28PM 30.1572 -97.7150 288° West 238 274 5,900  Level Houston Center
05:29PM 30.2022 -97.7881 305° West 267 307 8,600 2,880 Climbing Houston Center
05:30PM 30.2567 -97.8825 304° West 293 337 11,900 2,580 Climbing Houston Center
05:31PM 30.3075 -97.9661 305° West 312 359 14,000 2,280 Climbing Houston Center
05:32PM 30.4887 -97.8690 293° West  Level FlightAware Approximate
05:32PM 30.3617 -98.0567 305° West 325 374 16,700  Level Houston Center
05:33PM 30.5320 -97.9867 288° West  Level FlightAware Approximate
05:33PM 30.4139 -98.1428 305° West 326 375 19,100  Level Houston Center
05:34PM 30.4669 -98.2319 305° West 329 379 21,300 1,980 Climbing Houston Center
05:35PM 30.5225 -98.3236 305° West 342 394 23,300 1,920 Climbing Houston Center
05:36PM 30.5942 -98.4053 316° Northwest 363 418 25,300 1,860 Climbing Houston Center
05:37PM 30.6881 -98.4975 320° Northwest 365 420 27,200 1,680 Climbing Houston Center
05:38PM 30.7678 -98.5775 319° Northwest 373 429 28,800 1,620 Climbing Houston Center
05:39PM 30.8492 -98.6569 320° Northwest 378 435 30,600 1,500 Climbing Houston Center
05:40PM 30.9306 -98.7381 319° Northwest 380 437 32,000 1,500 Climbing Houston Center
05:41PM 31.0142 -98.8217 319° Northwest 390 449 33,800 1,680 Climbing Houston Center
05:42PM 31.0944 -98.8994 320° Northwest 382 440 35,500 1,740 Climbing Houston Center
05:43PM 31.1881 -98.9947 319° Northwest 375 432 37,500 1,380 Climbing Houston Center
05:44PM 31.2669 -99.0739 319° Northwest 365 420 38,400 600 Climbing Fort Worth Center
05:45PM 31.3456 -99.1531 319° Northwest 370 426 38,800 480 Climbing Fort Worth Center
05:46PM 31.4267 -99.2364 319° Northwest 381 438 39,400 540 Climbing Fort Worth Center
05:47PM 31.5097 -99.3183 320° Northwest 387 445 40,000 240 Climbing Fort Worth Center
05:48PM 31.5936 -99.4039 319° Northwest 399 459 40,000  Level Fort Worth Center
05:49PM 31.6808 -99.4931 319° Northwest 412 474 40,000  Level Fort Worth Center
05:50PM 31.7711 -99.5844 319° Northwest 423 487 40,000  Level Fort Worth Center
05:51PM 31.8808 -99.6967 319° Northwest 434 499 40,000  Level Fort Worth Center
05:53PM 31.9731 -99.7881 320° Northwest 432 497 40,000  Level Fort Worth Center
05:54PM 32.0661 -99.8850 319° Northwest 440 506 40,000  Level Fort Worth Center
05:55PM 32.1592 -99.9808 319° Northwest 441 507 40,000  Level Fort Worth Center
05:56PM 32.2519 -100.0781 318° Northwest 441 507 40,000  Level Fort Worth Center
05:57PM 32.3458 -100.1747 319° Northwest 441 507 40,000  Level Fort Worth Center
05:58PM 32.4378 -100.2708 319° Northwest 441 507 40,000  Level Fort Worth Center
05:59PM 32.5492 -100.3853 319° Northwest 438 504 40,000  Level Fort Worth Center
06:00PM 32.6417 -100.4817 319° Northwest 438 504 40,000  Level Fort Worth Center
06:01PM 32.7331 -100.5764 319° Northwest 437 503 40,000  Level Fort Worth Center
06:02PM 32.8225 -100.6733 318° Northwest 436 502 40,000  Level Fort Worth Center
06:03PM 32.9125 -100.7672 319° Northwest 432 497 40,000  Level Fort Worth Center
06:04PM 33.0006 -100.8614 318° Northwest 424 488 40,000  Level Fort Worth Center
06:05PM 33.0875 -100.9564 318° Northwest 425 489 40,000  Level Fort Worth Center
06:06PM 33.1967 -101.0672 320° Northwest 426 490 40,000  Level Fort Worth Center
06:07PM 33.2814 -101.1614 317° Northwest 422 486 40,000  Level Fort Worth Center
06:08PM 33.3694 -101.2539 319° Northwest 420 483 40,000  Level Fort Worth Center
06:09PM 33.4650 -101.3539 319° Northwest 421 484 40,000  Level Fort Worth Center
06:10PM 33.5519 -101.4467 318° Northwest 421 484 40,000  Level Fort Worth Center
06:11PM 33.6367 -101.5383 318° Northwest 416 479 40,000  Level Fort Worth Center
06:12PM 33.7228 -101.6303 318° Northwest 415 478 40,000  Level Fort Worth Center
06:13PM 33.8086 -101.7242 318° Northwest 418 481 40,000  Level Fort Worth Center
06:14PM 33.9111 -101.8367 318° Northwest 417 480 40,000  Level Fort Worth Center
06:15PM 33.9967 -101.9289 318° Northwest 417 480 40,000  Level Fort Worth Center
06:16PM 34.0867 -102.0289 317° Northwest 417 480 40,000  Level Fort Worth Center
06:17PM 34.1714 -102.1214 318° Northwest 415 478 40,100  Climbing Fort Worth Center
06:18PM 34.2581 -102.2164 318° Northwest 415 478 40,000  Descending Fort Worth Center
06:19PM 34.3444 -102.3108 318° Northwest 416 479 40,100  Climbing Fort Worth Center
06:20PM 34.4297 -102.4058 317° Northwest 416 479 40,100 -120 Level Fort Worth Center
06:21PM 34.4817 -102.4633 318° Northwest 420 483 40,000  Descending Albuquerque Center
06:22PM 34.5844 -102.5783 317° Northwest 420 483 40,100  Climbing Albuquerque Center
06:23PM 34.6681 -102.6711 318° Northwest 420 483 40,000 -60 Descending Albuquerque Center
06:24PM 34.7558 -102.7675 318° Northwest 420 483 40,000  Level Albuquerque Center
06:25PM 34.8428 -102.8661 317° Northwest 421 484 40,100  Climbing Albuquerque Center
06:26PM 34.9436 -102.9803 317° Northwest 421 484 40,100  Level Albuquerque Center
06:27PM 35.0289 -103.0775 317° Northwest 421 484 40,100  Level Albuquerque Center
06:28PM 35.1153 -103.1750 317° Northwest 421 484 40,100 -60 Level Albuquerque Center
06:29PM 35.2014 -103.2717 317° Northwest 420 483 40,000 -60 Descending Albuquerque Center
06:30PM 35.2864 -103.3683 317° Northwest 420 483 40,000  Level Albuquerque Center
06:31PM 35.3708 -103.4656 317° Northwest 419 482 40,100  Climbing Albuquerque Center
06:32PM 35.4681 -103.5769 317° Northwest 415 478 40,100 -60 Level Albuquerque Center
06:33PM 35.5522 -103.6722 317° Northwest 413 475 40,000  Descending Albuquerque Center
06:35PM 35.6347 -103.7697 316° Northwest 412 474 40,100  Climbing Albuquerque Center
06:36PM 35.7197 -103.8675 317° Northwest 412 474 40,000 -60 Descending Albuquerque Center
06:37PM 35.8047 -103.9675 316° Northwest 417 480 40,000  Level Albuquerque Center
06:38PM 35.8903 -104.0664 317° Northwest 418 481 40,100  Climbing Albuquerque Center
06:39PM 35.9756 -104.1669 316° Northwest 419 482 40,100 -60 Level Albuquerque Center
06:40PM 36.0761 -104.2839 317° Northwest 419 482 40,000 -60 Descending Albuquerque Center
06:41PM 36.1611 -104.3839 316° Northwest 420 483 40,000  Level Albuquerque Center
06:42PM 36.2464 -104.4825 317° Northwest 419 482 40,000  Level Albuquerque Center
06:43PM 36.3317 -104.5831 316° Northwest 419 482 40,100  Climbing Albuquerque Center
06:44PM 36.4169 -104.6847 316° Northwest 420 483 40,100 -60 Level Albuquerque Center
06:45PM 36.5019 -104.7856 316° Northwest 420 483 40,000 -540 Descending Albuquerque Center
06:46PM 36.5858 -104.8869 316° Northwest 420 483 39,100 -540 Descending Albuquerque Center
06:47PM 36.6822 -105.0019 316° Northwest 412 474 39,000 -60 Descending Albuquerque Center
06:48PM 36.7631 -105.0989 316° Northwest 412 474 39,000 -240 Level Albuquerque Center
06:49PM 36.8428 -105.1947 316° Northwest 412 474 38,600 -540 Descending Albuquerque Center
06:50PM 36.8958 -105.2614 315° West 413 475 38,100 -360 Descending Denver Center
06:51PM 36.9931 -105.3794 316° Northwest 426 490 38,000 -60 Descending Denver Center
06:52PM 37.0742 -105.4781 316° Northwest 426 490 38,000  Level Denver Center
06:53PM 37.1692 -105.5947 316° Northwest 426 490 38,000  Level Denver Center
06:54PM 37.2506 -105.6936 316° Northwest 424 488 38,000  Level Denver Center
06:55PM 37.3422 -105.8069 316° Northwest 424 488 38,000  Level Denver Center
06:56PM 37.4272 -105.9008 319° Northwest 421 484 38,000  Level Denver Center
06:57PM 37.5422 -106.0256 319° Northwest 425 489 38,000  Level Denver Center
06:58PM 37.6306 -106.1233 319° Northwest 427 491 38,000  Level Denver Center
06:59PM 37.7303 -106.2319 319° Northwest 430 495 38,000  Level Denver Center
07:00PM 37.8019 -106.3119 319° Northwest 431 496 38,000  Level Denver Center
07:01PM 37.8942 -106.4089 320° Northwest 431 496 38,000  Level Denver Center
07:02PM 38.0444 -106.4431 350° North 432 497 38,000  Level Denver Center
07:03PM 38.1511 -106.4500 357° North 432 497 38,000 -540 Level Denver Center
07:04PM 38.2972 -106.4611 357° North 435 501 37,000 -1,320 Descending Denver Center
07:05PM 38.4200 -106.4719 356° North 437 503 35,400 -1,800 Descending Denver Center
07:06PM 38.5431 -106.4817 356° North 439 505 33,300 -2,100 Descending Denver Center
07:07PM 38.6672 -106.4908 357° North 441 507 31,100 -2,160 Descending Denver Center
07:08PM 38.7936 -106.5003 357° North 452 520 28,900 -2,280 Descending Denver Center
07:09PM 38.9306 -106.5111 356° North 460 529 26,500 -2,460 Descending Denver Center
07:10PM 39.0756 -106.5217 357° North 464 534 23,900 -2,160 Descending Denver Center
07:11PM 39.1969 -106.5325 356° North 463 533 22,100 -960 Descending Denver Center
07:13PM 39.3311 -106.5428 357° North 437 503 22,000 -60 Descending Denver Center
07:14PM 39.4414 -106.5517 356° North 423 487 22,000 -2,280 Level Denver Center
07:15PM 39.5511 -106.6028 340° North 380 437 17,400 -5,280 Descending Denver Center
07:16PM 39.6406 -106.6831 325° Northwest 379 436 11,100 -3,720 Descending Denver Center
07:17PM 39.6758 -106.7692 298° West 316 364 9,800 -1,020 Descending Denver Center
07:18PM 39.6519 -106.8344 245° Southwest 239 275 9,000 -1,560 Descending Denver Center
07:19PM 39.6447 -106.8939 261° West 192 221 6,600 -2,340 Descending Denver Center